sensor_id;sensor_type;location;lat;lon;timestamp;P1;durP1;ratioP1;P2;durP2;ratioP2
72645;SDS011;60687;53.876;10.674;2022-08-19T00:00:03;18.70;;;11.83;;
72645;SDS011;60687;53.876;10.674;2022-08-19T00:10:20;20.17;;;12.15;;
72645;SDS011;60687;53.876;10.674;2022-08-19T00:20:39;19.90;;;12.73;;
72645;SDS011;60687;53.876;10.674;2022-08-19T00:30:50;21.73;;;12.93;;
72645;SDS011;60687;53.876;10.674;2022-08-19T00:41:01;22.47;;;14.10;;
72645;SDS011;60687;53.876;10.674;2022-08-19T00:51:18;19.13;;;11.27;;
72645;SDS011;60687;53.876;10.674;2022-08-19T01:01:34;21.40;;;11.97;;
72645;SDS011;60687;53.876;10.674;2022-08-19T01:11:38;21.23;;;12.07;;
72645;SDS011;60687;53.876;10.674;2022-08-19T01:21:52;23.85;;;14.20;;
72645;SDS011;60687;53.876;10.674;2022-08-19T01:32:07;21.53;;;13.03;;
72645;SDS011;60687;53.876;10.674;2022-08-19T01:42:19;25.67;;;15.03;;
72645;SDS011;60687;53.876;10.674;2022-08-19T01:52:28;21.10;;;12.23;;
72645;SDS011;60687;53.876;10.674;2022-08-19T02:02:39;20.43;;;11.00;;
72645;SDS011;60687;53.876;10.674;2022-08-19T02:12:45;22.97;;;11.90;;
72645;SDS011;60687;53.876;10.674;2022-08-19T02:22:52;18.37;;;10.50;;
72645;SDS011;60687;53.876;10.674;2022-08-19T02:32:59;19.58;;;11.05;;
72645;SDS011;60687;53.876;10.674;2022-08-19T02:43:06;18.77;;;10.60;;
72645;SDS011;60687;53.876;10.674;2022-08-19T02:53:11;19.60;;;10.30;;
72645;SDS011;60687;53.876;10.674;2022-08-19T03:03:18;22.40;;;12.25;;
72645;SDS011;60687;53.876;10.674;2022-08-19T03:13:25;18.43;;;9.87;;
72645;SDS011;60687;53.876;10.674;2022-08-19T03:23:37;17.83;;;10.27;;
72645;SDS011;60687;53.876;10.674;2022-08-19T03:33:48;21.25;;;11.18;;
72645;SDS011;60687;53.876;10.674;2022-08-19T03:43:54;19.87;;;10.30;;
72645;SDS011;60687;53.876;10.674;2022-08-19T03:54:04;22.57;;;11.70;;
72645;SDS011;60687;53.876;10.674;2022-08-19T04:04:19;19.20;;;10.98;;
72645;SDS011;60687;53.876;10.674;2022-08-19T04:14:36;20.90;;;10.47;;
72645;SDS011;60687;53.876;10.674;2022-08-19T04:25:02;19.00;;;10.03;;
72645;SDS011;60687;53.876;10.674;2022-08-19T04:35:41;22.37;;;10.47;;
72645;SDS011;60687;53.876;10.674;2022-08-19T04:45:56;17.42;;;9.77;;
72645;SDS011;60687;53.876;10.674;2022-08-19T04:56:15;22.57;;;12.97;;
72645;SDS011;60687;53.876;10.674;2022-08-19T05:06:35;20.23;;;10.30;;
72645;SDS011;60687;53.876;10.674;2022-08-19T05:16:47;20.35;;;12.55;;
72645;SDS011;60687;53.876;10.674;2022-08-19T05:26:53;22.77;;;11.53;;
72645;SDS011;60687;53.876;10.674;2022-08-19T05:37:12;23.97;;;12.73;;
72645;SDS011;60687;53.876;10.674;2022-08-19T05:47:18;25.50;;;13.88;;
72645;SDS011;60687;53.876;10.674;2022-08-19T05:57:24;25.13;;;13.27;;
72645;SDS011;60687;53.876;10.674;2022-08-19T06:07:28;26.17;;;13.00;;
72645;SDS011;60687;53.876;10.674;2022-08-19T06:17:35;29.42;;;14.40;;
72645;SDS011;60687;53.876;10.674;2022-08-19T06:27:51;27.10;;;13.63;;
72645;SDS011;60687;53.876;10.674;2022-08-19T06:38:02;24.27;;;11.80;;
72645;SDS011;60687;53.876;10.674;2022-08-19T06:48:10;24.13;;;12.37;;
72645;SDS011;60687;53.876;10.674;2022-08-19T06:58:17;28.27;;;13.88;;
72645;SDS011;60687;53.876;10.674;2022-08-19T07:08:19;28.77;;;14.00;;
72645;SDS011;60687;53.876;10.674;2022-08-19T07:18:28;27.67;;;12.90;;
72645;SDS011;60687;53.876;10.674;2022-08-19T07:28:45;29.13;;;14.05;;
72645;SDS011;60687;53.876;10.674;2022-08-19T07:38:52;28.17;;;11.87;;
72645;SDS011;60687;53.876;10.674;2022-08-19T07:48:58;37.83;;;16.77;;
72645;SDS011;60687;53.876;10.674;2022-08-19T07:59:04;35.72;;;15.80;;
72645;SDS011;60687;53.876;10.674;2022-08-19T08:09:10;33.93;;;15.50;;
72645;SDS011;60687;53.876;10.674;2022-08-19T08:19:26;38.43;;;16.07;;
72645;SDS011;60687;53.876;10.674;2022-08-19T08:29:32;37.33;;;17.00;;
72645;SDS011;60687;53.876;10.674;2022-08-19T08:39:40;40.20;;;17.90;;
72645;SDS011;60687;53.876;10.674;2022-08-19T08:49:43;39.80;;;17.50;;
72645;SDS011;60687;53.876;10.674;2022-08-19T08:59:53;33.72;;;16.67;;
72645;SDS011;60687;53.876;10.674;2022-08-19T09:10:02;39.47;;;17.57;;
72645;SDS011;60687;53.876;10.674;2022-08-19T09:20:17;36.67;;;16.53;;
72645;SDS011;60687;53.876;10.674;2022-08-19T09:30:25;37.22;;;17.10;;
72645;SDS011;60687;53.876;10.674;2022-08-19T09:40:34;38.73;;;16.90;;
72645;SDS011;60687;53.876;10.674;2022-08-19T09:50:40;34.47;;;16.97;;
72645;SDS011;60687;53.876;10.674;2022-08-19T10:00:49;32.87;;;14.47;;
72645;SDS011;60687;53.876;10.674;2022-08-19T10:10:54;38.45;;;17.75;;
72645;SDS011;60687;53.876;10.674;2022-08-19T10:21:10;39.67;;;17.67;;
72645;SDS011;60687;53.876;10.674;2022-08-19T10:31:23;41.70;;;17.30;;
72645;SDS011;60687;53.876;10.674;2022-08-19T10:41:42;39.42;;;17.92;;
72645;SDS011;60687;53.876;10.674;2022-08-19T10:51:46;31.57;;;15.90;;
72645;SDS011;60687;53.876;10.674;2022-08-19T11:02:08;31.80;;;14.83;;
72645;SDS011;60687;53.876;10.674;2022-08-19T11:12:18;34.20;;;14.88;;
72645;SDS011;60687;53.876;10.674;2022-08-19T11:22:26;28.10;;;13.50;;
72645;SDS011;60687;53.876;10.674;2022-08-19T11:32:31;28.37;;;13.53;;
72645;SDS011;60687;53.876;10.674;2022-08-19T11:42:35;30.07;;;15.73;;
72645;SDS011;60687;53.876;10.674;2022-08-19T11:52:56;24.75;;;12.52;;
72645;SDS011;60687;53.876;10.674;2022-08-19T12:03:05;29.00;;;14.07;;
72645;SDS011;60687;53.876;10.674;2022-08-19T12:13:16;21.20;;;12.30;;
72645;SDS011;60687;53.876;10.674;2022-08-19T12:23:22;26.17;;;14.68;;
72645;SDS011;60687;53.876;10.674;2022-08-19T12:33:26;28.40;;;14.20;;
72645;SDS011;60687;53.876;10.674;2022-08-19T12:43:35;28.90;;;15.10;;
72645;SDS011;60687;53.876;10.674;2022-08-19T12:53:38;25.30;;;13.00;;
72645;SDS011;60687;53.876;10.674;2022-08-19T13:03:44;28.20;;;13.83;;
72645;SDS011;60687;53.876;10.674;2022-08-19T13:13:47;21.63;;;11.87;;
72645;SDS011;60687;53.876;10.674;2022-08-19T13:23:52;27.15;;;16.05;;
72645;SDS011;60687;53.876;10.674;2022-08-19T13:33:57;29.47;;;15.90;;
72645;SDS011;60687;53.876;10.674;2022-08-19T13:44:01;28.90;;;15.53;;
72645;SDS011;60687;53.876;10.674;2022-08-19T13:54:04;28.33;;;15.40;;
72645;SDS011;60687;53.876;10.674;2022-08-19T14:04:08;25.87;;;15.20;;
72645;SDS011;60687;53.876;10.674;2022-08-19T14:14:11;26.17;;;15.47;;
72645;SDS011;60687;53.876;10.674;2022-08-19T14:24:17;25.02;;;14.73;;
72645;SDS011;60687;53.876;10.674;2022-08-19T14:34:19;23.40;;;14.33;;
72645;SDS011;60687;53.876;10.674;2022-08-19T14:44:23;23.90;;;13.83;;
72645;SDS011;60687;53.876;10.674;2022-08-19T14:54:25;23.03;;;13.90;;
72645;SDS011;60687;53.876;10.674;2022-08-19T15:04:29;24.58;;;14.45;;
72645;SDS011;60687;53.876;10.674;2022-08-19T15:14:31;24.17;;;14.43;;
72645;SDS011;60687;53.876;10.674;2022-08-19T15:24:37;21.33;;;12.90;;
72645;SDS011;60687;53.876;10.674;2022-08-19T15:34:39;19.73;;;12.77;;
72645;SDS011;60687;53.876;10.674;2022-08-19T15:44:43;23.77;;;13.40;;
72645;SDS011;60687;53.876;10.674;2022-08-19T15:54:46;24.77;;;15.30;;
72645;SDS011;60687;53.876;10.674;2022-08-19T16:04:49;24.60;;;14.38;;
72645;SDS011;60687;53.876;10.674;2022-08-19T16:15:10;24.57;;;13.97;;
72645;SDS011;60687;53.876;10.674;2022-08-19T16:25:15;19.10;;;12.10;;
72645;SDS011;60687;53.876;10.674;2022-08-19T16:35:18;22.85;;;13.38;;
72645;SDS011;60687;53.876;10.674;2022-08-19T16:45:21;23.73;;;13.60;;
72645;SDS011;60687;53.876;10.674;2022-08-19T16:55:26;24.37;;;13.93;;
72645;SDS011;60687;53.876;10.674;2022-08-19T17:05:32;22.13;;;12.48;;
72645;SDS011;60687;53.876;10.674;2022-08-19T17:15:34;20.97;;;12.20;;
72645;SDS011;60687;53.876;10.674;2022-08-19T17:25:38;21.57;;;12.57;;
72645;SDS011;60687;53.876;10.674;2022-08-19T17:35:46;21.23;;;11.52;;
72645;SDS011;60687;53.876;10.674;2022-08-19T17:45:50;20.87;;;11.93;;
72645;SDS011;60687;53.876;10.674;2022-08-19T17:55:56;18.00;;;10.30;;
72645;SDS011;60687;53.876;10.674;2022-08-19T18:06:00;18.17;;;10.87;;
72645;SDS011;60687;53.876;10.674;2022-08-19T18:16:03;19.67;;;11.00;;
72645;SDS011;60687;53.876;10.674;2022-08-19T18:26:11;18.37;;;10.27;;
72645;SDS011;60687;53.876;10.674;2022-08-19T18:36:14;18.17;;;10.77;;
72645;SDS011;60687;53.876;10.674;2022-08-19T18:46:17;16.67;;;10.50;;
72645;SDS011;60687;53.876;10.674;2022-08-19T18:56:37;18.07;;;11.47;;
72645;SDS011;60687;53.876;10.674;2022-08-19T19:06:45;19.37;;;10.30;;
72645;SDS011;60687;53.876;10.674;2022-08-19T19:16:47;20.95;;;11.93;;
72645;SDS011;60687;53.876;10.674;2022-08-19T19:26:51;20.87;;;12.30;;
72645;SDS011;60687;53.876;10.674;2022-08-19T19:36:54;21.10;;;12.13;;
72645;SDS011;60687;53.876;10.674;2022-08-19T19:46:57;21.17;;;12.75;;
72645;SDS011;60687;53.876;10.674;2022-08-19T19:57:00;22.50;;;12.93;;
72645;SDS011;60687;53.876;10.674;2022-08-19T20:07:04;23.00;;;14.40;;
72645;SDS011;60687;53.876;10.674;2022-08-19T20:17:06;22.63;;;13.80;;
72645;SDS011;60687;53.876;10.674;2022-08-19T20:27:10;23.15;;;12.80;;
72645;SDS011;60687;53.876;10.674;2022-08-19T20:37:13;21.97;;;13.27;;
72645;SDS011;60687;53.876;10.674;2022-08-19T20:47:16;20.07;;;12.17;;
72645;SDS011;60687;53.876;10.674;2022-08-19T20:57:19;20.25;;;12.40;;
72645;SDS011;60687;53.876;10.674;2022-08-19T21:07:22;19.30;;;11.70;;
72645;SDS011;60687;53.876;10.674;2022-08-19T21:17:26;17.83;;;10.63;;
72645;SDS011;60687;53.876;10.674;2022-08-19T21:27:29;19.15;;;12.30;;
72645;SDS011;60687;53.876;10.674;2022-08-19T21:37:32;19.70;;;12.10;;
72645;SDS011;60687;53.876;10.674;2022-08-19T21:47:36;17.60;;;12.07;;
72645;SDS011;60687;53.876;10.674;2022-08-19T21:57:38;18.63;;;12.20;;
72645;SDS011;60687;53.876;10.674;2022-08-19T22:07:43;19.92;;;12.15;;
72645;SDS011;60687;53.876;10.674;2022-08-19T22:17:45;18.33;;;11.77;;
72645;SDS011;60687;53.876;10.674;2022-08-19T22:27:49;18.97;;;12.67;;
72645;SDS011;60687;53.876;10.674;2022-08-19T22:37:52;19.35;;;12.20;;
72645;SDS011;60687;53.876;10.674;2022-08-19T22:47:56;18.27;;;12.27;;
72645;SDS011;60687;53.876;10.674;2022-08-19T22:57:58;18.70;;;12.50;;
72645;SDS011;60687;53.876;10.674;2022-08-19T23:08:02;17.50;;;12.00;;
72645;SDS011;60687;53.876;10.674;2022-08-19T23:18:05;17.83;;;10.37;;
72645;SDS011;60687;53.876;10.674;2022-08-19T23:28:09;19.47;;;12.70;;
72645;SDS011;60687;53.876;10.674;2022-08-19T23:38:29;18.40;;;12.07;;
72645;SDS011;60687;53.876;10.674;2022-08-19T23:48:34;19.13;;;12.30;;
72645;SDS011;60687;53.876;10.674;2022-08-19T23:58:38;18.67;;;11.70;;
